Time;durP1;ratioP1;P1;durP2;ratioP2;P2;SDS_P1;SDS_P2;PMS_P1;PMS_P2;Temp;Humidity;BMP_temperature;BMP_pressure;BME280_temperature;BME280_humidity;BME280_pressure;Samples;Min_cycle;Max_cycle;Signal;HPM_P1;HPM_P2
2022/06/19 00:00:14;;;;;;;12.88;3.65;;;14.40;99.90;;;;;;6122309;23;20021;-90
2022/06/19 00:02:49;;;;;;;15.88;3.33;;;13.70;99.90;;;;;;6099187;23;20343;-90
2022/06/19 00:05:37;;;;;;;16.55;3.58;;;13.80;99.90;;;;;;6124027;23;20053;-90
2022/06/19 00:08:15;;;;;;;17.75;3.10;;;13.70;99.90;;;;;;6153405;22;20433;-91
2022/06/19 00:10:48;;;;;;;18.48;4.25;;;14.50;99.90;;;;;;6237207;23;20024;-90
2022/06/19 00:13:15;;;;;;;18.35;3.38;;;14.70;99.90;;;;;;6218033;23;20020;-90
2022/06/19 00:15:56;;;;;;;17.08;3.67;;;14.50;99.90;;;;;;6245819;23;20070;-89
2022/06/19 00:18:25;;;;;;;22.27;3.88;;;14.10;99.90;;;;;;6245625;23;20384;-90
2022/06/19 00:20:57;;;;;;;17.98;3.78;;;14.50;99.90;;;;;;6244548;23;20047;-91
2022/06/19 00:23:32;;;;;;;18.55;3.72;;;13.70;99.90;;;;;;6245719;23;20027;-90
2022/06/19 00:26:14;;;;;;;18.65;3.95;;;13.60;99.90;;;;;;6218863;23;20023;-91
2022/06/19 00:28:58;;;;;;;17.40;3.65;;;14.20;99.90;;;;;;6217593;23;20436;-90
2022/06/19 00:31:42;;;;;;;22.90;3.88;;;13.20;99.90;;;;;;6246173;23;20020;-91
2022/06/19 00:34:11;;;;;;;20.13;3.63;;;13.40;99.90;;;;;;6218882;23;20012;-91
2022/06/19 00:36:40;;;;;;;14.43;3.13;;;14.40;99.90;;;;;;6246750;23;20348;-90
2022/06/19 00:39:06;;;;;;;17.80;3.90;;;13.70;99.90;;;;;;6219084;23;20027;-90
2022/06/19 00:41:50;;;;;;;21.83;3.58;;;14.50;99.90;;;;;;6217890;23;20020;-90
2022/06/19 00:44:31;;;;;;;;;;;14.00;99.90;;;;;;6220220;23;20098;-90
2022/06/19 00:47:53;;;;;;;14.50;3.13;;;13.30;99.90;;;;;;6218802;23;20056;-90
2022/06/19 00:50:48;;;;;;;17.63;3.63;;;13.30;99.90;;;;;;6218721;23;20340;-89
2022/06/19 00:53:50;;;;;;;19.55;3.40;;;14.10;99.90;;;;;;6242424;23;20095;-90
2022/06/19 00:56:36;;;;;;;20.92;3.33;;;13.40;99.90;;;;;;6219794;23;20012;-90
2022/06/19 00:59:21;;;;;;;17.92;3.70;;;13.60;99.90;;;;;;6218989;23;20012;-90
2022/06/19 01:01:53;;;;;;;17.00;3.40;;;13.30;99.90;;;;;;6218027;23;20091;-88
2022/06/19 01:05:03;;;;;;;19.85;3.58;;;14.20;99.90;;;;;;6256236;23;20008;-89
2022/06/19 01:30:38;;;;;;;14.30;3.40;;;13.50;99.90;;;;;;6213795;23;20028;-90
2022/06/19 01:34:26;;;;;;;14.02;3.28;;;14.50;99.90;;;;;;6188387;23;20016;-90
2022/06/19 01:37:25;;;;;;;13.30;2.88;;;14.00;99.90;;;;;;6187798;23;20381;-89
2022/06/19 01:40:27;;;;;;;14.63;3.10;;;13.50;99.90;;;;;;6065562;23;20090;-90
2022/06/19 01:42:59;;;;;;;16.10;3.22;;;13.50;99.90;;;;;;6040337;23;20102;-89
2022/06/19 01:45:56;;;;;;;19.02;3.47;;;13.50;99.90;;;;;;6040431;23;20441;-90
2022/06/19 01:48:41;;;;;;;17.90;3.60;;;13.40;99.90;;;;;;6085775;23;20039;-89
2022/06/19 01:51:09;;;;;;;14.48;3.40;;;14.30;99.90;;;;;;6245958;23;20020;-89
2022/06/19 01:54:12;;;;;;;18.27;3.35;;;13.60;99.90;;;;;;6219124;23;20062;-90
2022/06/19 01:56:57;;;;;;;18.88;3.30;;;13.60;99.90;;;;;;6245141;23;20020;-89
2022/06/19 01:59:43;;;;;;;16.80;2.90;;;14.70;99.90;;;;;;6243981;23;20013;-90
2022/06/19 02:02:23;;;;;;;17.48;3.28;;;13.80;99.90;;;;;;6219188;23;20039;-90
2022/06/19 02:04:49;;;;;;;18.02;3.40;;;13.80;99.90;;;;;;6245055;23;20016;-90
2022/06/19 02:07:33;;;;;;;17.38;2.78;;;13.70;99.90;;;;;;6243790;23;20107;-90
2022/06/19 02:10:13;;;;;;;;;;;14.50;99.90;;;;;;6245518;23;20016;-90
2022/06/19 02:12:52;;;;;;;16.05;3.20;;;13.80;99.90;;;;;;6243091;23;19981;-90
2022/06/19 02:19:19;;;;;;;13.63;2.47;;;13.80;99.90;;;;;;6277793;22;20346;-90
2022/06/19 02:22:25;;;;;;;16.02;3.25;;;13.60;99.90;;;;;;6306790;22;20015;-90
2022/06/19 02:25:09;;;;;;;14.40;2.55;;;13.80;99.90;;;;;;6307740;22;20011;-90
2022/06/19 02:27:48;;;;;;;13.13;2.50;;;14.10;99.90;;;;;;6307638;22;20022;-90
2022/06/19 02:30:29;;;;;;;12.50;2.50;;;13.80;99.90;;;;;;6309124;22;20015;-90
2022/06/19 02:33:30;;;;;;;11.45;2.50;;;14.20;99.90;;;;;;6280954;22;20026;-90
2022/06/19 02:35:56;;;;;;;11.55;2.53;;;13.90;99.90;;;;;;6312278;22;20026;-91
2022/06/19 02:38:31;;;;;;;11.82;2.35;;;14.90;99.90;;;;;;6309741;22;20012;-91
2022/06/19 02:43:38;;;;;;;11.95;2.10;;;13.90;99.90;;;;;;6246529;22;20020;-90
2022/06/19 03:13:09;;;;;;;13.63;2.45;;;13.90;99.90;;;;;;6248870;22;20099;-89
2022/06/19 03:15:38;;;;;;;11.38;2.50;;;13.80;99.90;;;;;;6275630;22;20101;-90
2022/06/19 03:18:04;;;;;;;14.82;2.35;;;14.10;99.90;;;;;;6249185;22;20441;-90
2022/06/19 03:20:48;;;;;;;10.27;3.17;;;13.90;99.90;;;;;;6277255;22;20468;-89
2022/06/19 03:23:32;;;;;;;;;;;14.90;99.90;;;;;;6249836;22;20020;-90
2022/06/19 03:26:16;;;;;;;15.05;2.88;;;14.20;99.90;;;;;;6249890;22;20353;-89
2022/06/19 03:28:57;;;;;;;10.95;2.30;;;14.00;99.90;;;;;;6277375;22;20012;-89
2022/06/19 03:31:30;;;;;;;13.85;2.88;;;15.00;99.90;;;;;;6249903;22;20020;-90
2022/06/19 03:33:58;;;;;;;17.80;3.88;;;14.10;99.90;;;;;;6249359;22;20020;-89
2022/06/19 03:36:43;;;;;;;13.43;2.88;;;15.00;99.90;;;;;;6249928;22;20019;-90
2022/06/19 03:39:27;;;;;;;14.85;2.58;;;14.00;99.90;;;;;;6276478;22;20015;-90
2022/06/19 03:42:08;;;;;;;;;;;14.00;99.90;;;;;;6277566;22;20028;-90
2022/06/19 03:44:49;;;;;;;17.08;2.72;;;14.00;99.90;;;;;;6249745;22;19919;-89
2022/06/19 03:47:33;;;;;;;16.15;2.90;;;14.80;99.90;;;;;;6246672;22;20122;-90
2022/06/19 03:50:16;;;;;;;14.57;2.70;;;15.00;99.90;;;;;;6277283;22;20020;-90
2022/06/19 03:52:54;;;;;;;20.10;3.25;;;15.10;99.90;;;;;;6249185;22;20065;-89
2022/06/19 03:56:25;;;;;;;12.02;2.80;;;14.10;99.90;;;;;;6267070;22;19999;-89
2022/06/19 03:59:52;;;;;;;14.75;2.70;;;14.00;99.90;;;;;;6287635;22;20499;-90
2022/06/19 04:03:21;;;;;;;13.13;3.00;;;13.90;99.90;;;;;;6249635;22;20023;-89
2022/06/19 04:05:47;;;;;;;15.93;3.03;;;13.90;99.90;;;;;;6247600;22;20030;-89
2022/06/19 04:08:13;;;;;;;13.90;2.97;;;14.40;99.90;;;;;;6281022;22;20043;-90
2022/06/19 04:10:53;;;;;;;16.40;2.33;;;14.00;99.90;;;;;;6286944;22;20447;-90
2022/06/19 04:13:35;;;;;;;14.07;2.58;;;14.70;99.90;;;;;;6281049;22;20016;-90
2022/06/19 04:16:06;;;;;;;13.95;2.90;;;14.50;99.90;;;;;;6249115;22;20011;-89
2022/06/19 04:19:04;;;;;;;14.20;2.58;;;14.00;99.90;;;;;;6250098;22;20018;-89
2022/06/19 04:21:46;;;;;;;10.32;2.58;;;14.50;99.90;;;;;;6249288;22;20458;-89
2022/06/19 04:24:21;;;;;;;13.00;2.42;;;13.80;99.90;;;;;;6250438;22;20332;-90
2022/06/19 04:26:53;;;;;;;11.65;2.28;;;13.90;99.90;;;;;;6275694;22;20022;-90
2022/06/19 04:29:33;;;;;;;14.10;2.67;;;14.80;99.90;;;;;;6276438;22;20015;-90
2022/06/19 04:32:18;;;;;;;13.45;2.85;;;14.90;99.90;;;;;;6282469;22;20026;-88
2022/06/19 04:34:49;;;;;;;;;;;14.20;99.90;;;;;;6249183;22;20494;-89
2022/06/19 04:39:52;;;;;;;15.13;2.65;;;13.90;99.90;;;;;;6275230;22;20023;-89
2022/06/19 04:42:24;;;;;;;13.82;2.60;;;14.80;99.90;;;;;;6279873;22;20020;-89
2022/06/19 04:45:50;;;;;;;15.25;2.45;;;13.90;99.90;;;;;;6274861;22;20077;-89
2022/06/19 04:50:08;;;;;;;13.25;2.47;;;14.00;99.90;;;;;;6248390;22;20470;-90
2022/06/19 04:53:18;;;;;;;14.27;2.85;;;14.00;99.90;;;;;;6272477;22;20022;-89
2022/06/19 04:56:11;;;;;;;13.45;3.05;;;13.60;99.90;;;;;;6249021;22;20027;-90
2022/06/19 04:58:44;;;;;;;12.50;2.72;;;14.00;99.90;;;;;;6276347;22;20019;-89
2022/06/19 05:01:29;;;;;;;13.57;2.20;;;14.50;99.90;;;;;;6248408;22;20069;-89
2022/06/19 05:03:58;;;;;;;13.70;2.30;;;14.00;99.90;;;;;;6248725;22;20066;-89
2022/06/19 05:06:24;;;;;;;12.93;2.30;;;14.20;99.90;;;;;;6248545;22;20023;-89
2022/06/19 05:09:05;;;;;;;8.70;2.08;;;14.80;99.90;;;;;;6275093;22;20022;-89
2022/06/19 05:11:34;;;;;;;8.77;1.90;;;14.70;99.90;;;;;;6249325;22;20058;-89
2022/06/19 05:14:01;;;;;;;10.55;2.25;;;14.30;99.90;;;;;;6275667;22;20578;-90
2022/06/19 05:16:27;;;;;;;10.85;2.10;;;14.40;99.90;;;;;;6247518;22;20053;-90
2022/06/19 05:18:55;;;;;;;9.13;1.90;;;14.50;99.90;;;;;;6276007;22;20016;-89
2022/06/19 05:21:22;;;;;;;11.07;2.00;;;14.70;99.90;;;;;;6249241;22;20018;-89
2022/06/19 05:23:50;;;;;;;9.10;1.83;;;15.40;99.90;;;;;;6248234;22;20015;-90
2022/06/19 05:26:25;;;;;;;9.52;2.05;;;15.00;99.90;;;;;;6276146;22;20464;-89
2022/06/19 05:28:51;;;;;;;8.30;1.90;;;15.20;99.90;;;;;;6248287;22;20024;-90
2022/06/19 05:31:17;;;;;;;9.63;2.22;;;15.30;99.90;;;;;;6275450;22;20015;-90
2022/06/19 05:33:44;;;;;;;9.77;2.05;;;16.00;99.90;;;;;;6248852;22;20060;-89
2022/06/19 05:36:12;;;;;;;9.55;1.90;;;15.80;99.90;;;;;;6275452;22;20026;-89
2022/06/19 05:41:10;;;;;;;10.40;1.98;;;15.90;99.90;;;;;;6275787;22;20016;-90
2022/06/19 05:43:51;;;;;;;10.70;1.98;;;16.40;99.90;;;;;;6275780;22;20012;-90
2022/06/19 05:46:18;;;;;;;10.77;2.03;;;16.30;99.90;;;;;;6248830;22;20090;-91
2022/06/19 05:48:53;;;;;;;8.52;1.80;;;16.50;99.90;;;;;;6276455;22;20061;-91
2022/06/19 05:51:21;;;;;;;11.38;2.50;;;15.90;99.90;;;;;;6276477;22;20015;-89
2022/06/19 05:53:59;;;;;;;10.40;2.25;;;15.90;99.90;;;;;;6248623;22;20043;-89
2022/06/19 05:56:33;;;;;;;9.90;1.98;;;16.60;99.90;;;;;;6278249;22;20038;-89
2022/06/19 05:59:05;;;;;;;8.57;1.80;;;16.40;99.90;;;;;;6248167;22;20562;-90
2022/06/19 06:01:40;;;;;;;10.25;2.08;;;16.20;99.90;;;;;;6251104;22;20439;-90
2022/06/19 06:04:09;;;;;;;7.78;1.73;;;15.80;99.90;;;;;;6279126;22;20016;-90
2022/06/19 06:06:40;;;;;;;8.52;1.90;;;15.20;99.90;;;;;;6249751;22;20077;-91
2022/06/19 06:09:14;;;;;;;11.73;1.80;;;15.90;99.90;;;;;;6278116;22;20046;-91
2022/06/19 06:11:49;;;;;;;8.38;1.55;;;16.00;99.90;;;;;;6278295;22;20501;-90
2022/06/19 06:14:27;;;;;;;8.75;1.67;;;15.00;99.90;;;;;;6250353;22;20046;-90
2022/06/19 06:17:05;;;;;;;6.72;1.65;;;15.80;99.90;;;;;;6251197;22;20012;-91
2022/06/19 06:19:46;;;;;;;10.48;2.00;;;15.40;99.90;;;;;;6276727;22;20459;-91
2022/06/19 06:22:23;;;;;;;12.70;2.33;;;15.50;99.90;;;;;;6251194;22;20023;-91
2022/06/19 06:25:05;;;;;;;11.20;2.10;;;15.80;99.90;;;;;;6251099;22;20015;-91
2022/06/19 06:27:31;;;;;;;11.40;2.33;;;15.50;99.90;;;;;;6253681;22;20450;-91
2022/06/19 06:30:04;;;;;;;14.05;2.75;;;16.30;99.90;;;;;;6277345;22;20011;-90
2022/06/19 06:32:32;;;;;;;13.23;2.33;;;15.30;99.90;;;;;;6277082;22;20526;-90
2022/06/19 06:35:10;;;;;;;15.95;2.38;;;16.10;99.90;;;;;;6250617;22;20065;-90
2022/06/19 06:37:42;;;;;;;12.68;2.00;;;15.50;99.90;;;;;;6255263;22;20019;-90
2022/06/19 06:40:20;;;;;;;13.50;2.70;;;15.00;99.90;;;;;;6251005;22;20023;-90
2022/06/19 06:43:01;;;;;;;10.23;2.10;;;14.90;99.90;;;;;;6277508;22;20024;-91
2022/06/19 06:50:08;;;;;;;11.75;2.30;;;14.80;99.90;;;;;;6249975;22;20436;-90
2022/06/19 06:53:40;;;;;;;13.82;2.33;;;14.60;99.90;;;;;;6277609;22;20016;-92
2022/06/19 06:57:02;;;;;;;9.35;2.00;;;14.70;99.90;;;;;;6250347;22;20022;-91
2022/06/19 06:59:28;;;;;;;8.15;1.92;;;14.60;99.90;;;;;;6248763;22;20019;-95
2022/06/19 07:45:51;;;;;;;11.82;2.97;;;14.70;99.90;;;;;;6214166;22;20037;-95
2022/06/19 12:08:20;;;;;;;13.00;3.53;;;15.90;99.90;;;;;;6251812;22;20016;31
2022/06/19 13:29:21;;;;;;;6.18;2.20;;;17.50;99.90;;;;;;6267415;22;20113;-88
2022/06/19 17:22:29;;;;;;;12.43;2.28;;;15.40;99.90;;;;;;6274769;22;20015;-92
2022/06/19 17:25:21;;;;;;;9.80;2.20;;;15.60;99.90;;;;;;6222040;22;20023;-94
2022/06/19 17:28:09;;;;;;;11.07;2.70;;;15.50;99.90;;;;;;6225765;22;20026;-93
2022/06/19 17:31:08;;;;;;;9.07;2.30;;;15.50;99.90;;;;;;6248581;22;20019;-92
2022/06/19 20:53:20;;;;;;;12.23;3.00;;;13.50;99.90;;;;;;6248673;23;20023;-88
2022/06/19 20:56:22;;;;;;;10.63;2.65;;;13.40;99.90;;;;;;6246237;23;20439;-87
2022/06/19 21:02:29;;;;;;;14.38;4.38;;;13.00;99.90;;;;;;6220645;23;20051;-88
2022/06/19 21:08:52;;;;;;;15.40;4.97;;;13.30;99.90;;;;;;6149885;23;20023;-87
2022/06/19 21:12:23;;;;;;;14.20;4.90;;;13.20;99.90;;;;;;6199129;23;20093;-90
2022/06/19 21:18:38;;;;;;;11.40;4.05;;;13.10;99.90;;;;;;6220314;23;20131;-88
2022/06/19 21:21:44;;;;;;;11.38;2.72;;;13.30;99.90;;;;;;6219830;23;20463;-88
2022/06/19 21:33:12;;;;;;;11.65;2.70;;;13.10;99.90;;;;;;6036362;23;20122;-89
2022/06/19 21:59:48;;;;;;;13.30;2.72;;;13.30;99.90;;;;;;6215460;22;20024;-90
2022/06/19 22:03:07;;;;;;;12.20;2.63;;;13.20;99.90;;;;;;6214454;23;20075;-89
2022/06/19 22:14:17;;;;;;;9.93;2.30;;;12.60;99.90;;;;;;6215708;23;20429;-90
2022/06/19 22:17:12;;;;;;;9.10;2.30;;;12.70;99.90;;;;;;6200109;23;20094;-90
2022/06/19 22:20:12;;;;;;;14.80;2.20;;;12.90;99.90;;;;;;6228044;23;20024;-90
2022/06/19 22:23:06;;;;;;;11.35;2.30;;;12.90;99.90;;;;;;6190513;23;20464;-90
2022/06/19 22:25:38;;;;;;;8.90;2.28;;;12.90;99.90;;;;;;6190953;23;20432;-90
2022/06/19 22:28:36;;;;;;;10.63;2.53;;;12.90;99.90;;;;;;6189023;23;20097;-90
2022/06/19 22:34:47;;;;;;;11.27;2.33;;;12.70;99.90;;;;;;6040900;23;20023;-90
2022/06/19 22:37:43;;;;;;;9.82;2.10;;;13.80;99.90;;;;;;6040205;23;20049;-90
2022/06/19 22:44:39;;;;;;;7.53;2.00;;;12.80;99.90;;;;;;6065392;23;20355;-90
2022/06/19 22:50:45;;;;;;;10.15;2.25;;;13.60;99.90;;;;;;6041926;23;20062;-91
2022/06/19 22:53:14;;;;;;;10.73;2.10;;;12.80;99.90;;;;;;6043006;23;20019;-90
2022/06/19 22:55:45;;;;;;;10.88;2.30;;;12.70;99.90;;;;;;6066611;23;20074;-91
2022/06/19 23:04:33;;;;;;;9.57;2.40;;;13.80;99.90;;;;;;6276577;22;20114;-89
2022/06/19 23:07:05;;;;;;;8.30;2.10;;;12.90;99.90;;;;;;6276817;22;20019;-92
2022/06/19 23:12:31;;;;;;;8.35;2.03;;;12.60;99.90;;;;;;6273661;22;20042;-89
2022/06/19 23:15:22;;;;;;;9.57;2.30;;;12.60;99.90;;;;;;6267489;22;20562;-88
2022/06/19 23:18:06;;;;;;;7.95;2.20;;;12.60;99.90;;;;;;6245201;22;20020;-90
2022/06/19 23:21:16;;;;;;;9.40;2.10;;;12.60;99.90;;;;;;6250210;22;20016;-89
2022/06/19 23:27:36;;;;;;;8.75;2.40;;;12.50;99.90;;;;;;6276251;22;20050;-89
2022/06/19 23:30:24;;;;;;;8.30;2.33;;;13.20;99.90;;;;;;6250276;22;20026;-90
2022/06/19 23:33:27;;;;;;;11.88;2.38;;;12.50;99.90;;;;;;6248699;22;20050;-89
2022/06/19 23:39:48;;;;;;;10.23;2.55;;;12.50;99.90;;;;;;6279982;22;20055;-89
2022/06/19 23:45:28;;;;;;;10.45;2.20;;;12.30;99.90;;;;;;6250147;22;20023;-89
2022/06/19 23:48:12;;;;;;;10.30;2.33;;;13.00;99.90;;;;;;6252807;22;20444;-88
2022/06/19 23:50:38;;;;;;;10.68;2.40;;;12.30;99.90;;;;;;6278028;22;20016;-89
2022/06/19 23:53:16;;;;;;;9.95;2.40;;;13.60;99.90;;;;;;6249223;22;20069;-89
2022/06/19 23:56:02;;;;;;;14.90;2.40;;;12.30;99.90;;;;;;6276474;22;20463;-89
2022/06/19 23:58:43;;;;;;;11.20;2.35;;;12.50;99.90;;;;;;6276915;22;20031;-89
